sensor_id;sensor_type;location;lat;lon;timestamp;P1;durP1;ratioP1;P2;durP2;ratioP2
60653;SDS011;46476;53.614;10.048;2022-08-19T00:00:49;9.68;;;7.47;;
60653;SDS011;46476;53.614;10.048;2022-08-19T00:03:18;9.70;;;7.32;;
60653;SDS011;46476;53.614;10.048;2022-08-19T00:05:47;10.77;;;7.95;;
60653;SDS011;46476;53.614;10.048;2022-08-19T00:08:21;9.30;;;7.20;;
60653;SDS011;46476;53.614;10.048;2022-08-19T00:11:34;12.18;;;8.65;;
60653;SDS011;46476;53.614;10.048;2022-08-19T00:14:06;12.15;;;8.27;;
60653;SDS011;46476;53.614;10.048;2022-08-19T00:16:33;10.82;;;8.38;;
60653;SDS011;46476;53.614;10.048;2022-08-19T00:19:12;12.13;;;8.75;;
60653;SDS011;46476;53.614;10.048;2022-08-19T00:22:34;13.48;;;8.52;;
60653;SDS011;46476;53.614;10.048;2022-08-19T00:24:59;13.40;;;8.68;;
60653;SDS011;46476;53.614;10.048;2022-08-19T00:27:27;12.20;;;8.50;;
60653;SDS011;46476;53.614;10.048;2022-08-19T00:30:24;12.82;;;8.77;;
60653;SDS011;46476;53.614;10.048;2022-08-19T00:32:52;13.27;;;8.95;;
60653;SDS011;46476;53.614;10.048;2022-08-19T00:35:23;12.68;;;9.02;;
60653;SDS011;46476;53.614;10.048;2022-08-19T00:37:50;16.27;;;8.95;;
60653;SDS011;46476;53.614;10.048;2022-08-19T00:40:17;12.90;;;9.38;;
60653;SDS011;46476;53.614;10.048;2022-08-19T00:42:43;12.07;;;8.35;;
60653;SDS011;46476;53.614;10.048;2022-08-19T00:45:11;11.23;;;8.32;;
60653;SDS011;46476;53.614;10.048;2022-08-19T00:47:39;13.35;;;9.25;;
60653;SDS011;46476;53.614;10.048;2022-08-19T00:50:05;15.00;;;8.77;;
60653;SDS011;46476;53.614;10.048;2022-08-19T00:52:34;12.75;;;8.15;;
60653;SDS011;46476;53.614;10.048;2022-08-19T00:55:02;12.13;;;9.50;;
60653;SDS011;46476;53.614;10.048;2022-08-19T00:57:36;11.93;;;8.88;;
60653;SDS011;46476;53.614;10.048;2022-08-19T01:00:07;16.27;;;9.75;;
60653;SDS011;46476;53.614;10.048;2022-08-19T01:02:36;13.82;;;9.52;;
60653;SDS011;46476;53.614;10.048;2022-08-19T01:05:04;14.13;;;8.95;;
60653;SDS011;46476;53.614;10.048;2022-08-19T01:07:33;14.32;;;9.07;;
60653;SDS011;46476;53.614;10.048;2022-08-19T01:09:59;12.85;;;8.82;;
60653;SDS011;46476;53.614;10.048;2022-08-19T01:12:25;12.93;;;8.77;;
60653;SDS011;46476;53.614;10.048;2022-08-19T01:14:50;14.80;;;8.95;;
60653;SDS011;46476;53.614;10.048;2022-08-19T01:17:17;13.57;;;9.20;;
60653;SDS011;46476;53.614;10.048;2022-08-19T01:19:49;16.40;;;8.85;;
60653;SDS011;46476;53.614;10.048;2022-08-19T01:22:52;14.15;;;8.48;;
60653;SDS011;46476;53.614;10.048;2022-08-19T01:26:18;14.18;;;9.35;;
60653;SDS011;46476;53.614;10.048;2022-08-19T01:28:53;11.25;;;8.35;;
60653;SDS011;46476;53.614;10.048;2022-08-19T01:31:37;12.57;;;8.80;;
60653;SDS011;46476;53.614;10.048;2022-08-19T01:34:07;13.38;;;8.23;;
60653;SDS011;46476;53.614;10.048;2022-08-19T01:47:24;12.80;;;8.50;;
60653;SDS011;46476;53.614;10.048;2022-08-19T01:53:54;13.77;;;8.70;;
60653;SDS011;46476;53.614;10.048;2022-08-19T02:57:23;22.85;;;10.57;;
60653;SDS011;46476;53.614;10.048;2022-08-19T03:01:02;19.00;;;10.70;;
60653;SDS011;46476;53.614;10.048;2022-08-19T03:07:12;17.88;;;9.60;;
60653;SDS011;46476;53.614;10.048;2022-08-19T03:09:49;17.50;;;9.77;;
60653;SDS011;46476;53.614;10.048;2022-08-19T03:12:40;18.50;;;10.15;;
60653;SDS011;46476;53.614;10.048;2022-08-19T03:15:32;19.50;;;9.82;;
60653;SDS011;46476;53.614;10.048;2022-08-19T03:18:34;17.88;;;10.43;;
60653;SDS011;46476;53.614;10.048;2022-08-19T03:21:00;20.63;;;9.38;;
60653;SDS011;46476;53.614;10.048;2022-08-19T03:23:26;18.58;;;9.77;;
60653;SDS011;46476;53.614;10.048;2022-08-19T03:26:22;20.42;;;10.07;;
60653;SDS011;46476;53.614;10.048;2022-08-19T03:35:06;19.77;;;10.00;;
60653;SDS011;46476;53.614;10.048;2022-08-19T03:38:00;19.98;;;10.07;;
60653;SDS011;46476;53.614;10.048;2022-08-19T03:41:08;17.40;;;9.40;;
60653;SDS011;46476;53.614;10.048;2022-08-19T03:44:32;17.92;;;10.50;;
60653;SDS011;46476;53.614;10.048;2022-08-19T03:51:44;17.48;;;8.90;;
60653;SDS011;46476;53.614;10.048;2022-08-19T03:55:45;16.20;;;9.02;;
60653;SDS011;46476;53.614;10.048;2022-08-19T03:58:52;16.27;;;8.75;;
60653;SDS011;46476;53.614;10.048;2022-08-19T04:09:38;14.73;;;8.77;;
60653;SDS011;46476;53.614;10.048;2022-08-19T04:12:58;15.98;;;9.00;;
60653;SDS011;46476;53.614;10.048;2022-08-19T04:23:19;17.15;;;8.93;;
60653;SDS011;46476;53.614;10.048;2022-08-19T04:30:24;18.30;;;11.02;;
60653;SDS011;46476;53.614;10.048;2022-08-19T04:34:05;18.65;;;10.25;;
60653;SDS011;46476;53.614;10.048;2022-08-19T04:36:33;20.13;;;10.45;;
60653;SDS011;46476;53.614;10.048;2022-08-19T04:39:03;16.35;;;10.27;;
60653;SDS011;46476;53.614;10.048;2022-08-19T04:41:30;19.50;;;10.98;;
60653;SDS011;46476;53.614;10.048;2022-08-19T04:44:15;18.83;;;11.73;;
60653;SDS011;46476;53.614;10.048;2022-08-19T04:46:43;18.73;;;11.27;;
60653;SDS011;46476;53.614;10.048;2022-08-19T04:49:09;21.73;;;11.68;;
60653;SDS011;46476;53.614;10.048;2022-08-19T04:51:39;21.25;;;11.75;;
60653;SDS011;46476;53.614;10.048;2022-08-19T04:54:07;21.80;;;12.02;;
60653;SDS011;46476;53.614;10.048;2022-08-19T04:56:33;20.13;;;11.88;;
60653;SDS011;46476;53.614;10.048;2022-08-19T04:58:58;24.27;;;12.70;;
60653;SDS011;46476;53.614;10.048;2022-08-19T05:01:28;22.98;;;12.88;;
60653;SDS011;46476;53.614;10.048;2022-08-19T05:03:54;23.92;;;13.70;;
60653;SDS011;46476;53.614;10.048;2022-08-19T05:06:21;21.58;;;13.65;;
60653;SDS011;46476;53.614;10.048;2022-08-19T05:08:48;26.15;;;14.02;;
60653;SDS011;46476;53.614;10.048;2022-08-19T05:14:35;26.02;;;13.18;;
60653;SDS011;46476;53.614;10.048;2022-08-19T05:17:01;22.92;;;13.02;;
60653;SDS011;46476;53.614;10.048;2022-08-19T05:19:27;24.35;;;12.93;;
60653;SDS011;46476;53.614;10.048;2022-08-19T05:22:11;20.35;;;12.13;;
60653;SDS011;46476;53.614;10.048;2022-08-19T05:24:54;24.08;;;13.70;;
60653;SDS011;46476;53.614;10.048;2022-08-19T05:27:20;21.77;;;13.48;;
60653;SDS011;46476;53.614;10.048;2022-08-19T05:29:45;24.35;;;13.60;;
60653;SDS011;46476;53.614;10.048;2022-08-19T05:32:10;24.80;;;13.40;;
60653;SDS011;46476;53.614;10.048;2022-08-19T05:34:36;28.33;;;13.45;;
60653;SDS011;46476;53.614;10.048;2022-08-19T05:37:03;22.73;;;12.93;;
60653;SDS011;46476;53.614;10.048;2022-08-19T05:39:30;24.40;;;13.10;;
60653;SDS011;46476;53.614;10.048;2022-08-19T05:41:58;21.42;;;12.48;;
60653;SDS011;46476;53.614;10.048;2022-08-19T05:44:28;23.13;;;13.35;;
60653;SDS011;46476;53.614;10.048;2022-08-19T05:46:59;22.67;;;13.35;;
60653;SDS011;46476;53.614;10.048;2022-08-19T05:49:27;23.13;;;13.60;;
60653;SDS011;46476;53.614;10.048;2022-08-19T05:51:53;22.13;;;13.07;;
60653;SDS011;46476;53.614;10.048;2022-08-19T05:54:20;22.25;;;13.15;;
60653;SDS011;46476;53.614;10.048;2022-08-19T05:56:48;24.10;;;12.43;;
60653;SDS011;46476;53.614;10.048;2022-08-19T05:59:15;22.83;;;12.85;;
60653;SDS011;46476;53.614;10.048;2022-08-19T06:01:42;19.88;;;12.00;;
60653;SDS011;46476;53.614;10.048;2022-08-19T06:04:10;22.80;;;12.25;;
60653;SDS011;46476;53.614;10.048;2022-08-19T06:06:35;23.85;;;12.73;;
60653;SDS011;46476;53.614;10.048;2022-08-19T06:09:02;20.88;;;12.05;;
60653;SDS011;46476;53.614;10.048;2022-08-19T06:11:33;19.48;;;12.07;;
60653;SDS011;46476;53.614;10.048;2022-08-19T06:14:00;19.90;;;11.90;;
60653;SDS011;46476;53.614;10.048;2022-08-19T06:16:28;19.75;;;11.65;;
60653;SDS011;46476;53.614;10.048;2022-08-19T06:18:56;17.67;;;11.20;;
60653;SDS011;46476;53.614;10.048;2022-08-19T06:21:25;20.38;;;11.63;;
60653;SDS011;46476;53.614;10.048;2022-08-19T06:23:52;18.88;;;11.80;;
60653;SDS011;46476;53.614;10.048;2022-08-19T06:26:18;19.20;;;10.73;;
60653;SDS011;46476;53.614;10.048;2022-08-19T06:28:45;20.17;;;10.55;;
60653;SDS011;46476;53.614;10.048;2022-08-19T06:31:23;20.40;;;11.57;;
60653;SDS011;46476;53.614;10.048;2022-08-19T06:33:51;24.05;;;12.60;;
60653;SDS011;46476;53.614;10.048;2022-08-19T06:38:42;21.35;;;12.77;;
60653;SDS011;46476;53.614;10.048;2022-08-19T06:41:08;21.90;;;12.20;;
60653;SDS011;46476;53.614;10.048;2022-08-19T06:43:34;21.40;;;11.90;;
60653;SDS011;46476;53.614;10.048;2022-08-19T06:46:08;19.52;;;12.40;;
60653;SDS011;46476;53.614;10.048;2022-08-19T06:48:36;22.27;;;12.30;;
60653;SDS011;46476;53.614;10.048;2022-08-19T06:51:01;20.90;;;12.90;;
60653;SDS011;46476;53.614;10.048;2022-08-19T06:53:30;25.92;;;13.93;;
60653;SDS011;46476;53.614;10.048;2022-08-19T06:55:55;24.85;;;13.18;;
60653;SDS011;46476;53.614;10.048;2022-08-19T06:58:25;22.65;;;13.32;;
60653;SDS011;46476;53.614;10.048;2022-08-19T07:00:50;25.35;;;14.05;;
60653;SDS011;46476;53.614;10.048;2022-08-19T07:03:16;23.67;;;13.70;;
60653;SDS011;46476;53.614;10.048;2022-08-19T07:05:42;24.90;;;14.02;;
60653;SDS011;46476;53.614;10.048;2022-08-19T07:08:08;25.52;;;13.85;;
60653;SDS011;46476;53.614;10.048;2022-08-19T07:10:34;23.98;;;13.45;;
60653;SDS011;46476;53.614;10.048;2022-08-19T07:13:04;25.35;;;15.07;;
60653;SDS011;46476;53.614;10.048;2022-08-19T07:15:30;25.33;;;14.10;;
60653;SDS011;46476;53.614;10.048;2022-08-19T07:17:56;24.58;;;14.00;;
60653;SDS011;46476;53.614;10.048;2022-08-19T07:20:21;25.48;;;13.40;;
60653;SDS011;46476;53.614;10.048;2022-08-19T07:22:46;25.77;;;13.43;;
60653;SDS011;46476;53.614;10.048;2022-08-19T07:25:13;28.55;;;14.23;;
60653;SDS011;46476;53.614;10.048;2022-08-19T07:27:38;26.35;;;13.48;;
60653;SDS011;46476;53.614;10.048;2022-08-19T07:30:04;26.05;;;13.90;;
60653;SDS011;46476;53.614;10.048;2022-08-19T07:32:30;24.33;;;13.13;;
60653;SDS011;46476;53.614;10.048;2022-08-19T07:34:56;25.52;;;14.35;;
60653;SDS011;46476;53.614;10.048;2022-08-19T07:37:21;25.35;;;13.55;;
60653;SDS011;46476;53.614;10.048;2022-08-19T07:39:47;23.60;;;13.10;;
60653;SDS011;46476;53.614;10.048;2022-08-19T07:42:12;24.27;;;13.10;;
60653;SDS011;46476;53.614;10.048;2022-08-19T07:44:38;23.42;;;12.60;;
60653;SDS011;46476;53.614;10.048;2022-08-19T07:47:04;25.42;;;12.55;;
60653;SDS011;46476;53.614;10.048;2022-08-19T07:49:32;25.00;;;12.35;;
60653;SDS011;46476;53.614;10.048;2022-08-19T07:52:00;22.35;;;11.45;;
60653;SDS011;46476;53.614;10.048;2022-08-19T07:54:30;20.02;;;11.95;;
60653;SDS011;46476;53.614;10.048;2022-08-19T07:56:59;25.10;;;12.75;;
60653;SDS011;46476;53.614;10.048;2022-08-19T07:59:25;21.10;;;11.48;;
60653;SDS011;46476;53.614;10.048;2022-08-19T08:01:51;23.55;;;11.70;;
60653;SDS011;46476;53.614;10.048;2022-08-19T08:04:17;18.05;;;11.38;;
60653;SDS011;46476;53.614;10.048;2022-08-19T08:07:03;20.17;;;11.63;;
60653;SDS011;46476;53.614;10.048;2022-08-19T08:09:47;21.52;;;11.88;;
60653;SDS011;46476;53.614;10.048;2022-08-19T08:12:15;19.65;;;11.65;;
60653;SDS011;46476;53.614;10.048;2022-08-19T08:14:50;22.33;;;12.30;;
60653;SDS011;46476;53.614;10.048;2022-08-19T08:17:19;22.55;;;12.38;;
60653;SDS011;46476;53.614;10.048;2022-08-19T08:19:47;20.88;;;11.63;;
60653;SDS011;46476;53.614;10.048;2022-08-19T08:22:15;19.30;;;11.25;;
60653;SDS011;46476;53.614;10.048;2022-08-19T08:25:06;17.85;;;10.27;;
60653;SDS011;46476;53.614;10.048;2022-08-19T08:27:37;17.95;;;9.80;;
60653;SDS011;46476;53.614;10.048;2022-08-19T08:30:07;16.02;;;9.43;;
60653;SDS011;46476;53.614;10.048;2022-08-19T08:32:38;13.77;;;9.60;;
60653;SDS011;46476;53.614;10.048;2022-08-19T08:35:05;14.23;;;7.93;;
60653;SDS011;46476;53.614;10.048;2022-08-19T08:37:53;13.40;;;7.03;;
60653;SDS011;46476;53.614;10.048;2022-08-19T08:46:03;12.13;;;7.63;;
60653;SDS011;46476;53.614;10.048;2022-08-19T08:51:27;10.85;;;7.40;;
60653;SDS011;46476;53.614;10.048;2022-08-19T08:53:58;11.88;;;8.68;;
60653;SDS011;46476;53.614;10.048;2022-08-19T08:56:24;14.80;;;8.27;;
60653;SDS011;46476;53.614;10.048;2022-08-19T09:01:28;14.95;;;8.07;;
60653;SDS011;46476;53.614;10.048;2022-08-19T09:03:54;13.65;;;7.63;;
60653;SDS011;46476;53.614;10.048;2022-08-19T09:06:36;12.98;;;7.68;;
60653;SDS011;46476;53.614;10.048;2022-08-19T09:14:55;14.90;;;7.75;;
60653;SDS011;46476;53.614;10.048;2022-08-19T09:17:29;10.43;;;7.45;;
60653;SDS011;46476;53.614;10.048;2022-08-19T09:20:02;15.95;;;7.65;;
60653;SDS011;46476;53.614;10.048;2022-08-19T09:22:33;12.77;;;7.30;;
60653;SDS011;46476;53.614;10.048;2022-08-19T09:25:00;12.23;;;7.43;;
60653;SDS011;46476;53.614;10.048;2022-08-19T09:27:26;13.20;;;7.35;;
60653;SDS011;46476;53.614;10.048;2022-08-19T09:29:53;11.93;;;7.43;;
60653;SDS011;46476;53.614;10.048;2022-08-19T09:32:19;11.88;;;7.22;;
60653;SDS011;46476;53.614;10.048;2022-08-19T09:34:45;11.95;;;7.80;;
60653;SDS011;46476;53.614;10.048;2022-08-19T09:37:10;14.38;;;7.43;;
60653;SDS011;46476;53.614;10.048;2022-08-19T09:39:37;12.05;;;7.47;;
60653;SDS011;46476;53.614;10.048;2022-08-19T09:42:03;14.65;;;8.75;;
60653;SDS011;46476;53.614;10.048;2022-08-19T09:44:29;11.95;;;7.75;;
60653;SDS011;46476;53.614;10.048;2022-08-19T09:46:55;11.23;;;8.05;;
60653;SDS011;46476;53.614;10.048;2022-08-19T09:49:21;16.23;;;8.68;;
60653;SDS011;46476;53.614;10.048;2022-08-19T09:51:50;14.20;;;8.52;;
60653;SDS011;46476;53.614;10.048;2022-08-19T09:54:16;11.23;;;8.48;;
60653;SDS011;46476;53.614;10.048;2022-08-19T09:56:41;11.43;;;7.45;;
60653;SDS011;46476;53.614;10.048;2022-08-19T09:59:06;12.50;;;7.28;;
60653;SDS011;46476;53.614;10.048;2022-08-19T10:01:32;13.65;;;7.68;;
60653;SDS011;46476;53.614;10.048;2022-08-19T10:03:58;11.15;;;7.70;;
60653;SDS011;46476;53.614;10.048;2022-08-19T10:06:28;11.05;;;8.27;;
60653;SDS011;46476;53.614;10.048;2022-08-19T10:08:56;13.82;;;8.13;;
60653;SDS011;46476;53.614;10.048;2022-08-19T10:11:22;14.82;;;8.18;;
60653;SDS011;46476;53.614;10.048;2022-08-19T10:13:47;12.10;;;7.20;;
60653;SDS011;46476;53.614;10.048;2022-08-19T10:16:14;13.63;;;6.88;;
60653;SDS011;46476;53.614;10.048;2022-08-19T10:18:43;11.93;;;7.13;;
60653;SDS011;46476;53.614;10.048;2022-08-19T10:21:11;10.43;;;6.68;;
60653;SDS011;46476;53.614;10.048;2022-08-19T10:23:47;12.43;;;6.60;;
60653;SDS011;46476;53.614;10.048;2022-08-19T10:26:18;10.10;;;6.50;;
60653;SDS011;46476;53.614;10.048;2022-08-19T10:28:46;10.05;;;6.60;;
60653;SDS011;46476;53.614;10.048;2022-08-19T10:31:16;9.43;;;5.70;;
60653;SDS011;46476;53.614;10.048;2022-08-19T10:33:44;10.20;;;5.95;;
60653;SDS011;46476;53.614;10.048;2022-08-19T10:36:12;14.50;;;6.78;;
60653;SDS011;46476;53.614;10.048;2022-08-19T10:38:40;9.40;;;6.25;;
60653;SDS011;46476;53.614;10.048;2022-08-19T10:41:14;10.43;;;5.82;;
60653;SDS011;46476;53.614;10.048;2022-08-19T10:44:09;11.52;;;6.15;;
60653;SDS011;46476;53.614;10.048;2022-08-19T10:46:37;10.90;;;7.32;;
60653;SDS011;46476;53.614;10.048;2022-08-19T10:49:12;10.10;;;7.18;;
60653;SDS011;46476;53.614;10.048;2022-08-19T10:51:39;8.85;;;6.15;;
60653;SDS011;46476;53.614;10.048;2022-08-19T10:54:29;12.13;;;7.22;;
60653;SDS011;46476;53.614;10.048;2022-08-19T10:57:16;10.88;;;6.82;;
60653;SDS011;46476;53.614;10.048;2022-08-19T10:59:42;12.98;;;8.48;;
60653;SDS011;46476;53.614;10.048;2022-08-19T11:02:11;14.20;;;7.90;;
60653;SDS011;46476;53.614;10.048;2022-08-19T11:04:38;13.25;;;7.55;;
60653;SDS011;46476;53.614;10.048;2022-08-19T11:07:05;14.45;;;8.90;;
60653;SDS011;46476;53.614;10.048;2022-08-19T11:09:37;11.05;;;7.28;;
60653;SDS011;46476;53.614;10.048;2022-08-19T11:12:29;14.40;;;6.95;;
60653;SDS011;46476;53.614;10.048;2022-08-19T11:16:13;12.35;;;7.15;;
60653;SDS011;46476;53.614;10.048;2022-08-19T11:19:30;13.25;;;7.03;;
60653;SDS011;46476;53.614;10.048;2022-08-19T11:22:30;14.63;;;8.65;;
60653;SDS011;46476;53.614;10.048;2022-08-19T11:25:26;12.02;;;7.82;;
60653;SDS011;46476;53.614;10.048;2022-08-19T11:27:54;12.80;;;7.45;;
60653;SDS011;46476;53.614;10.048;2022-08-19T11:30:37;11.57;;;7.00;;
60653;SDS011;46476;53.614;10.048;2022-08-19T11:34:12;10.55;;;6.57;;
60653;SDS011;46476;53.614;10.048;2022-08-19T11:36:47;11.73;;;6.95;;
60653;SDS011;46476;53.614;10.048;2022-08-19T11:39:29;8.20;;;5.93;;
60653;SDS011;46476;53.614;10.048;2022-08-19T11:42:13;8.80;;;5.38;;
60653;SDS011;46476;53.614;10.048;2022-08-19T11:44:58;10.63;;;6.28;;
60653;SDS011;46476;53.614;10.048;2022-08-19T11:47:26;8.35;;;6.10;;
60653;SDS011;46476;53.614;10.048;2022-08-19T11:50:14;10.23;;;6.68;;
60653;SDS011;46476;53.614;10.048;2022-08-19T11:52:44;10.18;;;6.82;;
60653;SDS011;46476;53.614;10.048;2022-08-19T11:58:09;9.18;;;6.50;;
60653;SDS011;46476;53.614;10.048;2022-08-19T12:01:14;9.07;;;6.80;;
60653;SDS011;46476;53.614;10.048;2022-08-19T12:03:46;9.90;;;5.63;;
60653;SDS011;46476;53.614;10.048;2022-08-19T12:06:22;9.55;;;5.80;;
60653;SDS011;46476;53.614;10.048;2022-08-19T12:08:58;6.60;;;5.38;;
60653;SDS011;46476;53.614;10.048;2022-08-19T12:11:57;8.23;;;5.45;;
60653;SDS011;46476;53.614;10.048;2022-08-19T12:14:29;7.47;;;5.78;;
60653;SDS011;46476;53.614;10.048;2022-08-19T12:17:00;7.97;;;5.78;;
60653;SDS011;46476;53.614;10.048;2022-08-19T12:19:27;7.75;;;5.72;;
60653;SDS011;46476;53.614;10.048;2022-08-19T12:22:00;8.52;;;5.70;;
60653;SDS011;46476;53.614;10.048;2022-08-19T12:24:31;6.78;;;5.07;;
60653;SDS011;46476;53.614;10.048;2022-08-19T12:30:58;7.18;;;5.10;;
60653;SDS011;46476;53.614;10.048;2022-08-19T12:33:26;5.88;;;4.18;;
60653;SDS011;46476;53.614;10.048;2022-08-19T12:36:02;7.30;;;4.43;;
60653;SDS011;46476;53.614;10.048;2022-08-19T12:38:29;7.57;;;5.32;;
60653;SDS011;46476;53.614;10.048;2022-08-19T12:40:54;8.75;;;5.70;;
60653;SDS011;46476;53.614;10.048;2022-08-19T12:43:20;8.23;;;6.13;;
60653;SDS011;46476;53.614;10.048;2022-08-19T12:45:46;9.35;;;6.45;;
60653;SDS011;46476;53.614;10.048;2022-08-19T12:48:12;6.82;;;4.75;;
60653;SDS011;46476;53.614;10.048;2022-08-19T12:50:41;9.90;;;5.43;;
60653;SDS011;46476;53.614;10.048;2022-08-19T12:53:08;7.50;;;4.88;;
60653;SDS011;46476;53.614;10.048;2022-08-19T12:55:33;6.47;;;4.50;;
60653;SDS011;46476;53.614;10.048;2022-08-19T12:57:59;7.10;;;5.05;;
60653;SDS011;46476;53.614;10.048;2022-08-19T13:00:26;7.30;;;5.70;;
60653;SDS011;46476;53.614;10.048;2022-08-19T13:02:52;5.57;;;4.30;;
60653;SDS011;46476;53.614;10.048;2022-08-19T13:05:19;7.10;;;4.78;;
60653;SDS011;46476;53.614;10.048;2022-08-19T13:07:53;6.44;;;3.97;;
60653;SDS011;46476;53.614;10.048;2022-08-19T13:10:21;6.50;;;4.68;;
60653;SDS011;46476;53.614;10.048;2022-08-19T13:12:49;6.60;;;4.40;;
60653;SDS011;46476;53.614;10.048;2022-08-19T13:15:16;7.93;;;5.43;;
60653;SDS011;46476;53.614;10.048;2022-08-19T13:17:45;6.45;;;5.13;;
60653;SDS011;46476;53.614;10.048;2022-08-19T13:20:13;7.20;;;5.40;;
60653;SDS011;46476;53.614;10.048;2022-08-19T13:22:39;6.63;;;5.15;;
60653;SDS011;46476;53.614;10.048;2022-08-19T13:25:04;6.88;;;5.35;;
60653;SDS011;46476;53.614;10.048;2022-08-19T13:27:31;5.05;;;4.55;;
60653;SDS011;46476;53.614;10.048;2022-08-19T13:29:56;5.50;;;4.47;;
60653;SDS011;46476;53.614;10.048;2022-08-19T13:32:41;5.22;;;3.92;;
60653;SDS011;46476;53.614;10.048;2022-08-19T13:35:25;7.95;;;4.82;;
60653;SDS011;46476;53.614;10.048;2022-08-19T13:37:50;7.28;;;5.13;;
60653;SDS011;46476;53.614;10.048;2022-08-19T13:40:17;5.43;;;4.57;;
60653;SDS011;46476;53.614;10.048;2022-08-19T13:42:45;5.72;;;5.13;;
60653;SDS011;46476;53.614;10.048;2022-08-19T13:45:13;7.15;;;5.43;;
60653;SDS011;46476;53.614;10.048;2022-08-19T13:47:40;5.55;;;4.57;;
60653;SDS011;46476;53.614;10.048;2022-08-19T13:50:13;6.45;;;4.68;;
60653;SDS011;46476;53.614;10.048;2022-08-19T13:52:40;7.40;;;5.47;;
60653;SDS011;46476;53.614;10.048;2022-08-19T13:55:07;7.38;;;4.88;;
60653;SDS011;46476;53.614;10.048;2022-08-19T13:57:33;9.00;;;5.70;;
60653;SDS011;46476;53.614;10.048;2022-08-19T14:00:00;7.35;;;5.18;;
60653;SDS011;46476;53.614;10.048;2022-08-19T14:02:28;5.50;;;4.68;;
60653;SDS011;46476;53.614;10.048;2022-08-19T14:04:54;6.35;;;5.15;;
60653;SDS011;46476;53.614;10.048;2022-08-19T14:07:19;6.30;;;4.65;;
60653;SDS011;46476;53.614;10.048;2022-08-19T14:09:45;6.63;;;5.05;;
60653;SDS011;46476;53.614;10.048;2022-08-19T14:12:10;8.05;;;5.22;;
60653;SDS011;46476;53.614;10.048;2022-08-19T14:14:37;7.10;;;5.55;;
60653;SDS011;46476;53.614;10.048;2022-08-19T14:17:05;5.85;;;5.30;;
60653;SDS011;46476;53.614;10.048;2022-08-19T14:19:32;5.53;;;4.72;;
60653;SDS011;46476;53.614;10.048;2022-08-19T14:21:57;5.68;;;4.88;;
60653;SDS011;46476;53.614;10.048;2022-08-19T14:24:22;4.95;;;4.35;;
60653;SDS011;46476;53.614;10.048;2022-08-19T14:26:48;4.53;;;3.83;;
60653;SDS011;46476;53.614;10.048;2022-08-19T14:29:13;6.97;;;4.63;;
60653;SDS011;46476;53.614;10.048;2022-08-19T14:31:39;8.23;;;5.88;;
60653;SDS011;46476;53.614;10.048;2022-08-19T14:34:07;6.95;;;6.00;;
60653;SDS011;46476;53.614;10.048;2022-08-19T14:36:32;6.05;;;5.05;;
60653;SDS011;46476;53.614;10.048;2022-08-19T14:38:59;5.07;;;4.43;;
60653;SDS011;46476;53.614;10.048;2022-08-19T14:41:25;6.28;;;5.55;;
60653;SDS011;46476;53.614;10.048;2022-08-19T14:43:52;6.03;;;5.43;;
60653;SDS011;46476;53.614;10.048;2022-08-19T14:46:19;7.25;;;5.43;;
60653;SDS011;46476;53.614;10.048;2022-08-19T14:48:46;7.20;;;5.05;;
60653;SDS011;46476;53.614;10.048;2022-08-19T14:51:13;6.78;;;5.35;;
60653;SDS011;46476;53.614;10.048;2022-08-19T14:53:39;5.97;;;5.38;;
60653;SDS011;46476;53.614;10.048;2022-08-19T14:56:09;5.95;;;4.97;;
60653;SDS011;46476;53.614;10.048;2022-08-19T14:58:36;5.40;;;4.65;;
60653;SDS011;46476;53.614;10.048;2022-08-19T15:01:02;6.60;;;5.72;;
60653;SDS011;46476;53.614;10.048;2022-08-19T15:03:28;7.20;;;6.13;;
60653;SDS011;46476;53.614;10.048;2022-08-19T15:05:54;7.55;;;5.65;;
60653;SDS011;46476;53.614;10.048;2022-08-19T15:08:22;6.78;;;5.90;;
60653;SDS011;46476;53.614;10.048;2022-08-19T15:10:50;5.35;;;4.85;;
60653;SDS011;46476;53.614;10.048;2022-08-19T15:13:16;6.18;;;5.60;;
60653;SDS011;46476;53.614;10.048;2022-08-19T15:15:41;7.22;;;5.57;;
60653;SDS011;46476;53.614;10.048;2022-08-19T15:18:07;5.93;;;5.32;;
60653;SDS011;46476;53.614;10.048;2022-08-19T15:20:32;7.50;;;4.88;;
60653;SDS011;46476;53.614;10.048;2022-08-19T15:22:57;6.07;;;4.93;;
60653;SDS011;46476;53.614;10.048;2022-08-19T15:25:27;6.90;;;4.70;;
60653;SDS011;46476;53.614;10.048;2022-08-19T15:27:53;6.45;;;5.10;;
60653;SDS011;46476;53.614;10.048;2022-08-19T15:30:19;5.93;;;5.22;;
60653;SDS011;46476;53.614;10.048;2022-08-19T15:32:47;6.55;;;4.90;;
60653;SDS011;46476;53.614;10.048;2022-08-19T15:35:13;6.45;;;5.38;;
60653;SDS011;46476;53.614;10.048;2022-08-19T15:37:38;7.07;;;5.60;;
60653;SDS011;46476;53.614;10.048;2022-08-19T15:40:05;6.43;;;5.72;;
60653;SDS011;46476;53.614;10.048;2022-08-19T15:42:34;5.68;;;5.10;;
60653;SDS011;46476;53.614;10.048;2022-08-19T15:45:01;4.78;;;4.38;;
60653;SDS011;46476;53.614;10.048;2022-08-19T15:47:30;5.70;;;5.15;;
60653;SDS011;46476;53.614;10.048;2022-08-19T15:49:55;7.55;;;5.53;;
60653;SDS011;46476;53.614;10.048;2022-08-19T15:52:21;6.70;;;5.75;;
60653;SDS011;46476;53.614;10.048;2022-08-19T15:54:46;6.05;;;4.95;;
60653;SDS011;46476;53.614;10.048;2022-08-19T15:57:11;6.20;;;5.03;;
60653;SDS011;46476;53.614;10.048;2022-08-19T15:59:46;6.13;;;5.45;;
60653;SDS011;46476;53.614;10.048;2022-08-19T16:02:30;5.10;;;4.60;;
60653;SDS011;46476;53.614;10.048;2022-08-19T16:05:17;5.85;;;5.10;;
60653;SDS011;46476;53.614;10.048;2022-08-19T16:08:03;5.13;;;4.65;;
60653;SDS011;46476;53.614;10.048;2022-08-19T16:10:30;6.03;;;4.97;;
60653;SDS011;46476;53.614;10.048;2022-08-19T16:12:56;5.55;;;5.05;;
60653;SDS011;46476;53.614;10.048;2022-08-19T16:15:22;5.25;;;4.75;;
60653;SDS011;46476;53.614;10.048;2022-08-19T16:17:49;5.18;;;4.68;;
60653;SDS011;46476;53.614;10.048;2022-08-19T16:20:14;5.30;;;4.80;;
60653;SDS011;46476;53.614;10.048;2022-08-19T16:22:41;5.22;;;4.40;;
60653;SDS011;46476;53.614;10.048;2022-08-19T16:25:07;6.60;;;4.75;;
60653;SDS011;46476;53.614;10.048;2022-08-19T16:27:33;4.78;;;4.32;;
60653;SDS011;46476;53.614;10.048;2022-08-19T16:29:59;4.82;;;4.40;;
60653;SDS011;46476;53.614;10.048;2022-08-19T16:32:25;4.95;;;4.45;;
60653;SDS011;46476;53.614;10.048;2022-08-19T16:34:50;4.93;;;4.43;;
60653;SDS011;46476;53.614;10.048;2022-08-19T16:37:16;4.43;;;4.00;;
60653;SDS011;46476;53.614;10.048;2022-08-19T16:39:42;4.53;;;4.13;;
60653;SDS011;46476;53.614;10.048;2022-08-19T16:42:08;4.70;;;4.20;;
60653;SDS011;46476;53.614;10.048;2022-08-19T16:44:36;5.35;;;4.70;;
60653;SDS011;46476;53.614;10.048;2022-08-19T16:47:04;5.15;;;4.47;;
60653;SDS011;46476;53.614;10.048;2022-08-19T16:49:30;6.05;;;4.55;;
60653;SDS011;46476;53.614;10.048;2022-08-19T16:51:56;5.72;;;4.85;;
60653;SDS011;46476;53.614;10.048;2022-08-19T16:54:21;5.57;;;4.40;;
60653;SDS011;46476;53.614;10.048;2022-08-19T16:56:47;4.72;;;4.00;;
60653;SDS011;46476;53.614;10.048;2022-08-19T16:59:15;5.60;;;5.10;;
60653;SDS011;46476;53.614;10.048;2022-08-19T17:01:41;6.60;;;4.55;;
60653;SDS011;46476;53.614;10.048;2022-08-19T17:04:07;5.60;;;4.72;;
60653;SDS011;46476;53.614;10.048;2022-08-19T17:06:33;4.10;;;3.70;;
60653;SDS011;46476;53.614;10.048;2022-08-19T17:09:02;4.90;;;4.10;;
60653;SDS011;46476;53.614;10.048;2022-08-19T17:11:30;5.80;;;4.70;;